OKTOBER 22,2014


METAR SMJP 220900Z 13003KT 9999 FEW008 24/24 Q1011 NOSIG=

METAR SMZO 220900Z 00000KT 9999 FEW030 25/24 Q1011 NOSIG=

METAR SMNI 220900Z 00000KT 9999 FEW015 25/24 Q1011=